sensor_id;sensor_type;location;lat;lon;timestamp;P1;durP1;ratioP1;P2;durP2;ratioP2
65238;SDS011;51827;51.186;6.926;2023-06-26T00:00:37;6.10;;;4.47;;
65238;SDS011;51827;51.186;6.926;2023-06-26T00:01:37;6.63;;;4.80;;
65238;SDS011;51827;51.186;6.926;2023-06-26T00:02:37;6.13;;;4.80;;
65238;SDS011;51827;51.186;6.926;2023-06-26T00:03:38;8.50;;;5.28;;
65238;SDS011;51827;51.186;6.926;2023-06-26T00:04:38;7.30;;;4.93;;
65238;SDS011;51827;51.186;6.926;2023-06-26T00:05:38;5.80;;;4.50;;
65238;SDS011;51827;51.186;6.926;2023-06-26T00:06:38;8.00;;;5.00;;
65238;SDS011;51827;51.186;6.926;2023-06-26T00:07:39;7.17;;;5.10;;
65238;SDS011;51827;51.186;6.926;2023-06-26T00:08:39;6.87;;;4.80;;
65238;SDS011;51827;51.186;6.926;2023-06-26T00:09:40;6.00;;;4.68;;
65238;SDS011;51827;51.186;6.926;2023-06-26T00:10:40;6.80;;;4.90;;
65238;SDS011;51827;51.186;6.926;2023-06-26T00:11:40;5.90;;;4.57;;
65238;SDS011;51827;51.186;6.926;2023-06-26T00:12:41;6.53;;;4.67;;
65238;SDS011;51827;51.186;6.926;2023-06-26T00:13:41;8.33;;;5.20;;
65238;SDS011;51827;51.186;6.926;2023-06-26T00:14:41;7.73;;;5.10;;
65238;SDS011;51827;51.186;6.926;2023-06-26T00:15:41;10.53;;;4.77;;
65238;SDS011;51827;51.186;6.926;2023-06-26T00:16:42;7.33;;;4.90;;
65238;SDS011;51827;51.186;6.926;2023-06-26T00:17:42;6.87;;;4.40;;
65238;SDS011;51827;51.186;6.926;2023-06-26T00:18:42;6.73;;;4.70;;
65238;SDS011;51827;51.186;6.926;2023-06-26T00:19:42;6.10;;;4.43;;
65238;SDS011;51827;51.186;6.926;2023-06-26T00:20:43;7.17;;;5.10;;
65238;SDS011;51827;51.186;6.926;2023-06-26T00:21:43;6.13;;;4.23;;
65238;SDS011;51827;51.186;6.926;2023-06-26T00:22:43;7.95;;;4.72;;
65238;SDS011;51827;51.186;6.926;2023-06-26T00:23:44;5.90;;;4.63;;
65238;SDS011;51827;51.186;6.926;2023-06-26T00:24:45;6.25;;;4.60;;
65238;SDS011;51827;51.186;6.926;2023-06-26T00:25:45;7.53;;;4.60;;
65238;SDS011;51827;51.186;6.926;2023-06-26T00:26:46;5.73;;;4.43;;
65238;SDS011;51827;51.186;6.926;2023-06-26T00:27:47;5.47;;;4.40;;
65238;SDS011;51827;51.186;6.926;2023-06-26T00:28:47;6.70;;;4.33;;
65238;SDS011;51827;51.186;6.926;2023-06-26T00:29:47;5.80;;;4.53;;
65238;SDS011;51827;51.186;6.926;2023-06-26T00:30:48;5.40;;;4.40;;
65238;SDS011;51827;51.186;6.926;2023-06-26T00:31:48;5.87;;;4.60;;
65238;SDS011;51827;51.186;6.926;2023-06-26T00:32:48;6.57;;;4.60;;
65238;SDS011;51827;51.186;6.926;2023-06-26T00:33:48;5.97;;;4.60;;
65238;SDS011;51827;51.186;6.926;2023-06-26T00:34:49;5.30;;;4.20;;
65238;SDS011;51827;51.186;6.926;2023-06-26T00:35:49;6.57;;;4.50;;
65238;SDS011;51827;51.186;6.926;2023-06-26T00:36:49;5.43;;;4.03;;
65238;SDS011;51827;51.186;6.926;2023-06-26T00:37:52;6.70;;;4.27;;
65238;SDS011;51827;51.186;6.926;2023-06-26T00:38:53;5.25;;;4.40;;
65238;SDS011;51827;51.186;6.926;2023-06-26T00:39:53;6.27;;;4.43;;
65238;SDS011;51827;51.186;6.926;2023-06-26T00:40:53;4.77;;;4.03;;
65238;SDS011;51827;51.186;6.926;2023-06-26T00:41:54;6.43;;;4.43;;
65238;SDS011;51827;51.186;6.926;2023-06-26T00:42:55;8.27;;;4.50;;
65238;SDS011;51827;51.186;6.926;2023-06-26T00:43:55;8.63;;;4.57;;
65238;SDS011;51827;51.186;6.926;2023-06-26T00:44:55;6.13;;;4.53;;
65238;SDS011;51827;51.186;6.926;2023-06-26T00:45:56;5.43;;;4.33;;
65238;SDS011;51827;51.186;6.926;2023-06-26T00:46:56;5.67;;;4.40;;
65238;SDS011;51827;51.186;6.926;2023-06-26T00:47:56;5.63;;;4.30;;
65238;SDS011;51827;51.186;6.926;2023-06-26T00:48:58;5.90;;;4.20;;
65238;SDS011;51827;51.186;6.926;2023-06-26T00:49:59;6.80;;;4.68;;
65238;SDS011;51827;51.186;6.926;2023-06-26T00:51:00;7.20;;;4.53;;
65238;SDS011;51827;51.186;6.926;2023-06-26T00:52:01;10.82;;;4.63;;
65238;SDS011;51827;51.186;6.926;2023-06-26T00:53:01;7.07;;;4.63;;
65238;SDS011;51827;51.186;6.926;2023-06-26T00:54:01;6.63;;;4.67;;
65238;SDS011;51827;51.186;6.926;2023-06-26T00:55:02;5.95;;;4.35;;
65238;SDS011;51827;51.186;6.926;2023-06-26T00:56:02;7.15;;;4.60;;
65238;SDS011;51827;51.186;6.926;2023-06-26T00:57:03;5.38;;;4.45;;
65238;SDS011;51827;51.186;6.926;2023-06-26T00:58:04;5.38;;;4.38;;
65238;SDS011;51827;51.186;6.926;2023-06-26T00:59:04;8.05;;;4.97;;
65238;SDS011;51827;51.186;6.926;2023-06-26T01:00:05;7.83;;;4.63;;
65238;SDS011;51827;51.186;6.926;2023-06-26T01:01:05;8.15;;;4.80;;
65238;SDS011;51827;51.186;6.926;2023-06-26T01:02:06;5.90;;;4.50;;
65238;SDS011;51827;51.186;6.926;2023-06-26T01:03:06;6.67;;;4.57;;
65238;SDS011;51827;51.186;6.926;2023-06-26T01:04:06;6.37;;;4.53;;
65238;SDS011;51827;51.186;6.926;2023-06-26T01:05:07;6.70;;;4.67;;
65238;SDS011;51827;51.186;6.926;2023-06-26T01:06:07;6.93;;;4.50;;
65238;SDS011;51827;51.186;6.926;2023-06-26T01:07:11;6.38;;;4.55;;
65238;SDS011;51827;51.186;6.926;2023-06-26T01:08:12;6.70;;;4.67;;
65238;SDS011;51827;51.186;6.926;2023-06-26T01:09:17;8.07;;;5.18;;
65238;SDS011;51827;51.186;6.926;2023-06-26T01:10:19;6.07;;;4.82;;
65238;SDS011;51827;51.186;6.926;2023-06-26T01:11:19;6.22;;;4.80;;
65238;SDS011;51827;51.186;6.926;2023-06-26T01:12:19;7.87;;;4.73;;
65238;SDS011;51827;51.186;6.926;2023-06-26T01:13:20;5.97;;;4.60;;
65238;SDS011;51827;51.186;6.926;2023-06-26T01:14:20;6.65;;;4.63;;
65238;SDS011;51827;51.186;6.926;2023-06-26T01:15:21;7.13;;;4.90;;
65238;SDS011;51827;51.186;6.926;2023-06-26T01:16:21;6.33;;;4.77;;
65238;SDS011;51827;51.186;6.926;2023-06-26T01:17:23;8.50;;;4.60;;
65238;SDS011;51827;51.186;6.926;2023-06-26T01:18:25;5.93;;;4.63;;
65238;SDS011;51827;51.186;6.926;2023-06-26T01:19:29;5.38;;;4.50;;
65238;SDS011;51827;51.186;6.926;2023-06-26T01:20:35;6.25;;;4.88;;
65238;SDS011;51827;51.186;6.926;2023-06-26T01:21:37;6.75;;;4.70;;
65238;SDS011;51827;51.186;6.926;2023-06-26T01:25:03;7.65;;;4.80;;
65238;SDS011;51827;51.186;6.926;2023-06-26T01:26:21;5.78;;;4.65;;
65238;SDS011;51827;51.186;6.926;2023-06-26T01:27:22;6.22;;;4.55;;
65238;SDS011;51827;51.186;6.926;2023-06-26T01:28:25;6.53;;;4.82;;
65238;SDS011;51827;51.186;6.926;2023-06-26T01:29:26;6.60;;;4.70;;
65238;SDS011;51827;51.186;6.926;2023-06-26T01:30:29;6.72;;;4.60;;
65238;SDS011;51827;51.186;6.926;2023-06-26T01:31:31;7.25;;;5.07;;
65238;SDS011;51827;51.186;6.926;2023-06-26T01:32:33;6.18;;;4.80;;
65238;SDS011;51827;51.186;6.926;2023-06-26T01:33:34;7.75;;;5.18;;
65238;SDS011;51827;51.186;6.926;2023-06-26T01:34:34;7.53;;;5.30;;
65238;SDS011;51827;51.186;6.926;2023-06-26T01:35:35;6.70;;;4.80;;
65238;SDS011;51827;51.186;6.926;2023-06-26T01:36:36;6.65;;;4.85;;
65238;SDS011;51827;51.186;6.926;2023-06-26T01:37:36;5.93;;;4.87;;
65238;SDS011;51827;51.186;6.926;2023-06-26T01:38:36;5.60;;;4.57;;
65238;SDS011;51827;51.186;6.926;2023-06-26T01:39:36;7.70;;;5.10;;
65238;SDS011;51827;51.186;6.926;2023-06-26T01:40:37;7.27;;;4.80;;
65238;SDS011;51827;51.186;6.926;2023-06-26T01:41:37;8.10;;;4.73;;
65238;SDS011;51827;51.186;6.926;2023-06-26T01:42:37;6.70;;;4.77;;
65238;SDS011;51827;51.186;6.926;2023-06-26T01:43:43;5.70;;;5.00;;
65238;SDS011;51827;51.186;6.926;2023-06-26T01:45:16;8.85;;;5.10;;
65238;SDS011;51827;51.186;6.926;2023-06-26T01:47:33;6.47;;;4.65;;
65238;SDS011;51827;51.186;6.926;2023-06-26T01:48:38;7.10;;;4.88;;
65238;SDS011;51827;51.186;6.926;2023-06-26T01:50:49;7.72;;;5.20;;
65238;SDS011;51827;51.186;6.926;2023-06-26T01:51:55;8.90;;;5.25;;
65238;SDS011;51827;51.186;6.926;2023-06-26T01:53:34;7.25;;;4.90;;
65238;SDS011;51827;51.186;6.926;2023-06-26T01:54:33;11.57;;;5.15;;
65238;SDS011;51827;51.186;6.926;2023-06-26T01:55:49;6.32;;;4.88;;
65238;SDS011;51827;51.186;6.926;2023-06-26T01:57:19;7.90;;;5.18;;
65238;SDS011;51827;51.186;6.926;2023-06-26T01:58:22;7.43;;;4.97;;
65238;SDS011;51827;51.186;6.926;2023-06-26T01:59:23;7.95;;;4.72;;
65238;SDS011;51827;51.186;6.926;2023-06-26T02:00:28;5.38;;;4.53;;
65238;SDS011;51827;51.186;6.926;2023-06-26T02:01:29;8.07;;;5.22;;
65238;SDS011;51827;51.186;6.926;2023-06-26T02:02:29;6.88;;;4.90;;
65238;SDS011;51827;51.186;6.926;2023-06-26T02:03:32;6.10;;;4.63;;
65238;SDS011;51827;51.186;6.926;2023-06-26T02:04:32;5.78;;;4.65;;
65238;SDS011;51827;51.186;6.926;2023-06-26T02:05:32;6.27;;;5.03;;
65238;SDS011;51827;51.186;6.926;2023-06-26T02:06:33;6.73;;;4.93;;
65238;SDS011;51827;51.186;6.926;2023-06-26T02:07:36;6.23;;;4.90;;
65238;SDS011;51827;51.186;6.926;2023-06-26T02:08:36;6.13;;;4.80;;
65238;SDS011;51827;51.186;6.926;2023-06-26T02:09:36;7.93;;;4.97;;
65238;SDS011;51827;51.186;6.926;2023-06-26T02:10:37;6.57;;;5.20;;
65238;SDS011;51827;51.186;6.926;2023-06-26T02:11:37;6.50;;;5.03;;
65238;SDS011;51827;51.186;6.926;2023-06-26T02:12:37;6.43;;;4.80;;
65238;SDS011;51827;51.186;6.926;2023-06-26T02:13:38;6.32;;;5.07;;
65238;SDS011;51827;51.186;6.926;2023-06-26T02:14:38;7.27;;;5.10;;
65238;SDS011;51827;51.186;6.926;2023-06-26T02:15:39;6.97;;;4.70;;
65238;SDS011;51827;51.186;6.926;2023-06-26T02:16:39;5.93;;;4.82;;
65238;SDS011;51827;51.186;6.926;2023-06-26T02:17:39;10.37;;;5.23;;
65238;SDS011;51827;51.186;6.926;2023-06-26T02:18:39;7.20;;;5.00;;
65238;SDS011;51827;51.186;6.926;2023-06-26T02:19:40;7.83;;;5.00;;
65238;SDS011;51827;51.186;6.926;2023-06-26T02:20:40;6.97;;;4.90;;
65238;SDS011;51827;51.186;6.926;2023-06-26T02:21:40;6.87;;;5.00;;
65238;SDS011;51827;51.186;6.926;2023-06-26T02:22:41;7.50;;;5.07;;
65238;SDS011;51827;51.186;6.926;2023-06-26T02:23:41;6.90;;;5.20;;
65238;SDS011;51827;51.186;6.926;2023-06-26T02:24:44;6.57;;;5.13;;
65238;SDS011;51827;51.186;6.926;2023-06-26T02:25:45;7.15;;;5.18;;
65238;SDS011;51827;51.186;6.926;2023-06-26T02:26:45;8.13;;;5.40;;
65238;SDS011;51827;51.186;6.926;2023-06-26T02:27:45;8.03;;;5.33;;
65238;SDS011;51827;51.186;6.926;2023-06-26T02:28:46;8.13;;;5.37;;
65238;SDS011;51827;51.186;6.926;2023-06-26T02:29:46;8.23;;;5.03;;
65238;SDS011;51827;51.186;6.926;2023-06-26T02:30:46;7.30;;;5.00;;
65238;SDS011;51827;51.186;6.926;2023-06-26T02:31:46;7.87;;;5.03;;
65238;SDS011;51827;51.186;6.926;2023-06-26T02:32:47;6.67;;;5.33;;
65238;SDS011;51827;51.186;6.926;2023-06-26T02:33:47;9.70;;;5.57;;
65238;SDS011;51827;51.186;6.926;2023-06-26T02:34:47;6.77;;;5.03;;
65238;SDS011;51827;51.186;6.926;2023-06-26T02:35:47;7.13;;;5.10;;
65238;SDS011;51827;51.186;6.926;2023-06-26T02:36:48;7.75;;;5.22;;
65238;SDS011;51827;51.186;6.926;2023-06-26T02:37:48;9.23;;;5.27;;
65238;SDS011;51827;51.186;6.926;2023-06-26T02:38:48;7.27;;;5.33;;
65238;SDS011;51827;51.186;6.926;2023-06-26T02:39:49;7.93;;;5.00;;
65238;SDS011;51827;51.186;6.926;2023-06-26T02:40:49;6.07;;;4.63;;
65238;SDS011;51827;51.186;6.926;2023-06-26T02:41:49;8.07;;;5.10;;
65238;SDS011;51827;51.186;6.926;2023-06-26T02:42:52;7.35;;;5.10;;
65238;SDS011;51827;51.186;6.926;2023-06-26T02:43:52;6.93;;;4.90;;
65238;SDS011;51827;51.186;6.926;2023-06-26T02:44:53;6.40;;;5.10;;
65238;SDS011;51827;51.186;6.926;2023-06-26T02:45:53;8.33;;;5.60;;
65238;SDS011;51827;51.186;6.926;2023-06-26T02:46:53;13.03;;;5.43;;
65238;SDS011;51827;51.186;6.926;2023-06-26T02:47:53;8.77;;;5.20;;
65238;SDS011;51827;51.186;6.926;2023-06-26T02:48:54;6.17;;;4.90;;
65238;SDS011;51827;51.186;6.926;2023-06-26T02:49:54;8.73;;;5.43;;
65238;SDS011;51827;51.186;6.926;2023-06-26T02:50:54;12.63;;;5.87;;
65238;SDS011;51827;51.186;6.926;2023-06-26T02:51:54;8.03;;;5.40;;
65238;SDS011;51827;51.186;6.926;2023-06-26T02:52:55;8.93;;;5.30;;
65238;SDS011;51827;51.186;6.926;2023-06-26T02:53:55;7.23;;;5.40;;
65238;SDS011;51827;51.186;6.926;2023-06-26T02:54:55;8.90;;;5.20;;
65238;SDS011;51827;51.186;6.926;2023-06-26T02:55:55;10.07;;;5.40;;
65238;SDS011;51827;51.186;6.926;2023-06-26T02:56:55;6.47;;;5.10;;
65238;SDS011;51827;51.186;6.926;2023-06-26T02:57:56;8.93;;;5.33;;
65238;SDS011;51827;51.186;6.926;2023-06-26T02:58:56;8.50;;;5.57;;
65238;SDS011;51827;51.186;6.926;2023-06-26T02:59:56;7.50;;;5.50;;
65238;SDS011;51827;51.186;6.926;2023-06-26T03:00:56;7.70;;;5.17;;
65238;SDS011;51827;51.186;6.926;2023-06-26T03:01:57;7.40;;;5.13;;
65238;SDS011;51827;51.186;6.926;2023-06-26T03:02:57;8.50;;;5.23;;
65238;SDS011;51827;51.186;6.926;2023-06-26T03:03:57;7.23;;;5.30;;
65238;SDS011;51827;51.186;6.926;2023-06-26T03:04:57;7.73;;;5.27;;
65238;SDS011;51827;51.186;6.926;2023-06-26T03:05:58;8.80;;;5.40;;
65238;SDS011;51827;51.186;6.926;2023-06-26T03:06:58;7.70;;;5.20;;
65238;SDS011;51827;51.186;6.926;2023-06-26T03:07:58;6.97;;;5.33;;
65238;SDS011;51827;51.186;6.926;2023-06-26T03:08:58;7.93;;;5.23;;
65238;SDS011;51827;51.186;6.926;2023-06-26T03:09:58;7.80;;;5.20;;
65238;SDS011;51827;51.186;6.926;2023-06-26T03:10:59;9.23;;;5.53;;
65238;SDS011;51827;51.186;6.926;2023-06-26T03:11:59;9.17;;;5.47;;
65238;SDS011;51827;51.186;6.926;2023-06-26T03:12:59;9.60;;;5.60;;
65238;SDS011;51827;51.186;6.926;2023-06-26T03:13:59;7.27;;;5.57;;
65238;SDS011;51827;51.186;6.926;2023-06-26T03:15:00;7.50;;;5.60;;
65238;SDS011;51827;51.186;6.926;2023-06-26T03:16:00;7.60;;;5.50;;
65238;SDS011;51827;51.186;6.926;2023-06-26T03:17:00;7.07;;;5.33;;
65238;SDS011;51827;51.186;6.926;2023-06-26T03:18:01;7.23;;;5.27;;
65238;SDS011;51827;51.186;6.926;2023-06-26T03:19:01;6.50;;;5.17;;
65238;SDS011;51827;51.186;6.926;2023-06-26T03:20:01;7.17;;;5.07;;
65238;SDS011;51827;51.186;6.926;2023-06-26T03:21:01;8.07;;;5.47;;
65238;SDS011;51827;51.186;6.926;2023-06-26T03:22:02;7.00;;;5.17;;
65238;SDS011;51827;51.186;6.926;2023-06-26T03:23:02;8.23;;;5.40;;
65238;SDS011;51827;51.186;6.926;2023-06-26T03:24:02;7.50;;;5.70;;
65238;SDS011;51827;51.186;6.926;2023-06-26T03:25:03;6.07;;;5.05;;
65238;SDS011;51827;51.186;6.926;2023-06-26T03:26:03;8.60;;;5.45;;
65238;SDS011;51827;51.186;6.926;2023-06-26T03:27:03;9.27;;;4.83;;
65238;SDS011;51827;51.186;6.926;2023-06-26T03:28:04;8.10;;;5.00;;
65238;SDS011;51827;51.186;6.926;2023-06-26T03:29:04;6.90;;;5.10;;
65238;SDS011;51827;51.186;6.926;2023-06-26T03:30:04;7.70;;;5.47;;
65238;SDS011;51827;51.186;6.926;2023-06-26T03:31:05;7.65;;;5.60;;
65238;SDS011;51827;51.186;6.926;2023-06-26T03:32:05;7.23;;;5.27;;
65238;SDS011;51827;51.186;6.926;2023-06-26T03:33:06;7.93;;;5.20;;
65238;SDS011;51827;51.186;6.926;2023-06-26T03:34:06;9.90;;;5.50;;
65238;SDS011;51827;51.186;6.926;2023-06-26T03:35:06;6.90;;;5.60;;
65238;SDS011;51827;51.186;6.926;2023-06-26T03:36:07;6.43;;;5.03;;
65238;SDS011;51827;51.186;6.926;2023-06-26T03:37:07;6.97;;;5.30;;
65238;SDS011;51827;51.186;6.926;2023-06-26T03:38:07;6.87;;;5.37;;
65238;SDS011;51827;51.186;6.926;2023-06-26T03:39:07;7.40;;;5.57;;
65238;SDS011;51827;51.186;6.926;2023-06-26T03:40:08;7.53;;;5.57;;
65238;SDS011;51827;51.186;6.926;2023-06-26T03:41:09;6.20;;;4.78;;
65238;SDS011;51827;51.186;6.926;2023-06-26T03:42:09;8.23;;;5.20;;
65238;SDS011;51827;51.186;6.926;2023-06-26T03:43:09;7.80;;;5.10;;
65238;SDS011;51827;51.186;6.926;2023-06-26T03:44:09;7.10;;;5.50;;
65238;SDS011;51827;51.186;6.926;2023-06-26T03:45:10;7.37;;;5.40;;
65238;SDS011;51827;51.186;6.926;2023-06-26T03:46:10;7.33;;;5.20;;
65238;SDS011;51827;51.186;6.926;2023-06-26T03:47:10;8.47;;;5.40;;
65238;SDS011;51827;51.186;6.926;2023-06-26T03:48:10;7.80;;;5.73;;
65238;SDS011;51827;51.186;6.926;2023-06-26T03:49:11;7.97;;;5.07;;
65238;SDS011;51827;51.186;6.926;2023-06-26T03:50:11;8.23;;;5.33;;
65238;SDS011;51827;51.186;6.926;2023-06-26T03:51:11;8.67;;;5.63;;
65238;SDS011;51827;51.186;6.926;2023-06-26T03:52:11;9.77;;;5.17;;
65238;SDS011;51827;51.186;6.926;2023-06-26T03:53:12;7.47;;;5.77;;
65238;SDS011;51827;51.186;6.926;2023-06-26T03:54:12;8.13;;;5.70;;
65238;SDS011;51827;51.186;6.926;2023-06-26T03:55:12;7.50;;;5.47;;
65238;SDS011;51827;51.186;6.926;2023-06-26T03:56:13;8.23;;;5.10;;
65238;SDS011;51827;51.186;6.926;2023-06-26T03:57:13;8.93;;;5.60;;
65238;SDS011;51827;51.186;6.926;2023-06-26T03:58:13;10.17;;;5.77;;
65238;SDS011;51827;51.186;6.926;2023-06-26T03:59:14;8.90;;;5.70;;
65238;SDS011;51827;51.186;6.926;2023-06-26T04:00:14;13.02;;;5.78;;
65238;SDS011;51827;51.186;6.926;2023-06-26T04:01:15;7.93;;;5.18;;
65238;SDS011;51827;51.186;6.926;2023-06-26T04:02:15;8.70;;;5.40;;
65238;SDS011;51827;51.186;6.926;2023-06-26T04:03:15;12.77;;;5.63;;
65238;SDS011;51827;51.186;6.926;2023-06-26T04:04:15;7.80;;;5.47;;
65238;SDS011;51827;51.186;6.926;2023-06-26T04:05:16;11.03;;;5.40;;
65238;SDS011;51827;51.186;6.926;2023-06-26T04:06:16;7.60;;;5.53;;
65238;SDS011;51827;51.186;6.926;2023-06-26T04:07:16;9.47;;;5.73;;
65238;SDS011;51827;51.186;6.926;2023-06-26T04:08:17;8.27;;;5.33;;
65238;SDS011;51827;51.186;6.926;2023-06-26T04:09:17;8.43;;;5.60;;
65238;SDS011;51827;51.186;6.926;2023-06-26T04:10:17;11.00;;;5.57;;
65238;SDS011;51827;51.186;6.926;2023-06-26T04:11:17;8.18;;;5.00;;
65238;SDS011;51827;51.186;6.926;2023-06-26T04:12:18;8.40;;;5.07;;
65238;SDS011;51827;51.186;6.926;2023-06-26T04:13:18;7.97;;;5.35;;
65238;SDS011;51827;51.186;6.926;2023-06-26T04:14:19;7.82;;;5.38;;
65238;SDS011;51827;51.186;6.926;2023-06-26T04:15:19;8.67;;;5.67;;
65238;SDS011;51827;51.186;6.926;2023-06-26T04:16:20;11.75;;;5.43;;
65238;SDS011;51827;51.186;6.926;2023-06-26T04:17:21;9.35;;;5.97;;
65238;SDS011;51827;51.186;6.926;2023-06-26T04:18:21;10.90;;;5.20;;
65238;SDS011;51827;51.186;6.926;2023-06-26T04:19:21;8.43;;;5.20;;
65238;SDS011;51827;51.186;6.926;2023-06-26T04:20:21;12.00;;;5.40;;
65238;SDS011;51827;51.186;6.926;2023-06-26T04:21:22;7.53;;;5.10;;
65238;SDS011;51827;51.186;6.926;2023-06-26T04:23:23;9.13;;;5.00;;
65238;SDS011;51827;51.186;6.926;2023-06-26T04:24:23;8.47;;;5.20;;
65238;SDS011;51827;51.186;6.926;2023-06-26T04:25:24;7.77;;;5.27;;
65238;SDS011;51827;51.186;6.926;2023-06-26T04:26:24;7.93;;;5.20;;
65238;SDS011;51827;51.186;6.926;2023-06-26T04:27:24;8.17;;;5.07;;
65238;SDS011;51827;51.186;6.926;2023-06-26T04:28:24;8.47;;;5.20;;
65238;SDS011;51827;51.186;6.926;2023-06-26T04:29:27;8.53;;;5.40;;
65238;SDS011;51827;51.186;6.926;2023-06-26T04:30:28;10.07;;;5.57;;
65238;SDS011;51827;51.186;6.926;2023-06-26T04:31:28;7.93;;;5.07;;
65238;SDS011;51827;51.186;6.926;2023-06-26T04:32:28;13.30;;;5.43;;
65238;SDS011;51827;51.186;6.926;2023-06-26T04:33:29;15.93;;;5.23;;
65238;SDS011;51827;51.186;6.926;2023-06-26T04:34:29;13.77;;;4.60;;
65238;SDS011;51827;51.186;6.926;2023-06-26T04:35:29;10.00;;;5.43;;
65238;SDS011;51827;51.186;6.926;2023-06-26T04:36:30;9.40;;;5.17;;
65238;SDS011;51827;51.186;6.926;2023-06-26T04:37:30;11.97;;;5.00;;
65238;SDS011;51827;51.186;6.926;2023-06-26T04:38:31;11.60;;;5.10;;
65238;SDS011;51827;51.186;6.926;2023-06-26T04:39:32;9.48;;;4.45;;
65238;SDS011;51827;51.186;6.926;2023-06-26T04:40:32;7.33;;;4.90;;
65238;SDS011;51827;51.186;6.926;2023-06-26T04:41:33;8.87;;;4.83;;
65238;SDS011;51827;51.186;6.926;2023-06-26T04:42:33;9.30;;;4.90;;
65238;SDS011;51827;51.186;6.926;2023-06-26T04:43:33;10.47;;;5.00;;
65238;SDS011;51827;51.186;6.926;2023-06-26T04:44:33;10.50;;;4.90;;
65238;SDS011;51827;51.186;6.926;2023-06-26T04:45:34;10.80;;;4.90;;
65238;SDS011;51827;51.186;6.926;2023-06-26T04:46:34;9.37;;;4.90;;
65238;SDS011;51827;51.186;6.926;2023-06-26T04:47:34;11.30;;;4.67;;
65238;SDS011;51827;51.186;6.926;2023-06-26T04:48:34;9.87;;;4.77;;
65238;SDS011;51827;51.186;6.926;2023-06-26T04:49:35;9.27;;;5.03;;
65238;SDS011;51827;51.186;6.926;2023-06-26T04:50:35;10.57;;;4.33;;
65238;SDS011;51827;51.186;6.926;2023-06-26T04:51:35;8.90;;;5.03;;
65238;SDS011;51827;51.186;6.926;2023-06-26T04:52:36;8.30;;;5.03;;
65238;SDS011;51827;51.186;6.926;2023-06-26T04:53:36;11.10;;;5.07;;
65238;SDS011;51827;51.186;6.926;2023-06-26T04:54:37;8.33;;;4.73;;
65238;SDS011;51827;51.186;6.926;2023-06-26T04:55:37;9.00;;;4.90;;
65238;SDS011;51827;51.186;6.926;2023-06-26T04:56:37;13.77;;;4.90;;
65238;SDS011;51827;51.186;6.926;2023-06-26T04:57:37;11.00;;;4.95;;
65238;SDS011;51827;51.186;6.926;2023-06-26T04:58:38;11.67;;;4.47;;
65238;SDS011;51827;51.186;6.926;2023-06-26T04:59:38;10.93;;;5.00;;
65238;SDS011;51827;51.186;6.926;2023-06-26T05:00:38;6.37;;;4.30;;
65238;SDS011;51827;51.186;6.926;2023-06-26T05:01:39;6.57;;;4.13;;
65238;SDS011;51827;51.186;6.926;2023-06-26T05:02:39;6.10;;;4.38;;
65238;SDS011;51827;51.186;6.926;2023-06-26T05:03:39;6.97;;;4.50;;
65238;SDS011;51827;51.186;6.926;2023-06-26T05:04:39;7.47;;;4.27;;
65238;SDS011;51827;51.186;6.926;2023-06-26T05:05:40;7.20;;;4.67;;
65238;SDS011;51827;51.186;6.926;2023-06-26T05:06:40;7.33;;;4.57;;
65238;SDS011;51827;51.186;6.926;2023-06-26T05:07:41;7.30;;;4.65;;
65238;SDS011;51827;51.186;6.926;2023-06-26T05:08:41;9.70;;;4.43;;
65238;SDS011;51827;51.186;6.926;2023-06-26T05:09:42;9.30;;;4.37;;
65238;SDS011;51827;51.186;6.926;2023-06-26T05:10:42;6.80;;;4.67;;
65238;SDS011;51827;51.186;6.926;2023-06-26T05:11:43;8.23;;;4.38;;
65238;SDS011;51827;51.186;6.926;2023-06-26T05:12:43;7.87;;;4.80;;
65238;SDS011;51827;51.186;6.926;2023-06-26T05:13:43;6.57;;;4.90;;
65238;SDS011;51827;51.186;6.926;2023-06-26T05:14:44;7.57;;;4.57;;
65238;SDS011;51827;51.186;6.926;2023-06-26T05:15:44;9.23;;;4.63;;
65238;SDS011;51827;51.186;6.926;2023-06-26T05:16:45;6.15;;;4.38;;
65238;SDS011;51827;51.186;6.926;2023-06-26T05:17:46;7.93;;;4.90;;
65238;SDS011;51827;51.186;6.926;2023-06-26T05:18:46;7.67;;;4.47;;
65238;SDS011;51827;51.186;6.926;2023-06-26T05:19:46;8.77;;;4.20;;
65238;SDS011;51827;51.186;6.926;2023-06-26T05:20:46;8.13;;;4.27;;
65238;SDS011;51827;51.186;6.926;2023-06-26T05:21:47;7.43;;;4.28;;
65238;SDS011;51827;51.186;6.926;2023-06-26T05:22:48;7.00;;;4.32;;
65238;SDS011;51827;51.186;6.926;2023-06-26T05:23:49;6.82;;;4.28;;
65238;SDS011;51827;51.186;6.926;2023-06-26T05:24:55;10.02;;;4.55;;
65238;SDS011;51827;51.186;6.926;2023-06-26T05:25:57;6.68;;;4.47;;
65238;SDS011;51827;51.186;6.926;2023-06-26T05:26:58;6.53;;;4.20;;
65238;SDS011;51827;51.186;6.926;2023-06-26T05:27:58;6.85;;;4.65;;
65238;SDS011;51827;51.186;6.926;2023-06-26T05:28:59;6.43;;;4.35;;
65238;SDS011;51827;51.186;6.926;2023-06-26T05:29:59;8.80;;;3.97;;
65238;SDS011;51827;51.186;6.926;2023-06-26T05:31:00;8.75;;;4.35;;
65238;SDS011;51827;51.186;6.926;2023-06-26T05:32:00;7.15;;;4.25;;
65238;SDS011;51827;51.186;6.926;2023-06-26T05:33:02;8.73;;;4.40;;
65238;SDS011;51827;51.186;6.926;2023-06-26T05:34:03;7.20;;;4.22;;
65238;SDS011;51827;51.186;6.926;2023-06-26T05:35:03;8.40;;;4.47;;
65238;SDS011;51827;51.186;6.926;2023-06-26T05:36:04;6.63;;;4.20;;
65238;SDS011;51827;51.186;6.926;2023-06-26T05:37:06;6.55;;;4.40;;
65238;SDS011;51827;51.186;6.926;2023-06-26T05:38:07;6.07;;;4.35;;
65238;SDS011;51827;51.186;6.926;2023-06-26T05:39:08;6.70;;;4.05;;
65238;SDS011;51827;51.186;6.926;2023-06-26T05:40:09;8.75;;;4.22;;
65238;SDS011;51827;51.186;6.926;2023-06-26T05:41:09;6.00;;;4.10;;
65238;SDS011;51827;51.186;6.926;2023-06-26T05:42:10;7.82;;;4.80;;
65238;SDS011;51827;51.186;6.926;2023-06-26T05:43:11;6.18;;;4.55;;
65238;SDS011;51827;51.186;6.926;2023-06-26T05:44:12;6.55;;;4.18;;
65238;SDS011;51827;51.186;6.926;2023-06-26T05:45:12;6.60;;;4.03;;
65238;SDS011;51827;51.186;6.926;2023-06-26T05:46:12;6.10;;;4.40;;
65238;SDS011;51827;51.186;6.926;2023-06-26T05:47:13;6.57;;;4.53;;
65238;SDS011;51827;51.186;6.926;2023-06-26T05:48:13;7.05;;;4.43;;
65238;SDS011;51827;51.186;6.926;2023-06-26T05:49:14;5.70;;;4.35;;
65238;SDS011;51827;51.186;6.926;2023-06-26T05:50:14;8.73;;;4.60;;
65238;SDS011;51827;51.186;6.926;2023-06-26T05:51:15;5.00;;;3.97;;
65238;SDS011;51827;51.186;6.926;2023-06-26T05:52:15;5.68;;;4.47;;
65238;SDS011;51827;51.186;6.926;2023-06-26T05:53:16;7.25;;;4.20;;
65238;SDS011;51827;51.186;6.926;2023-06-26T05:54:16;8.23;;;4.35;;
65238;SDS011;51827;51.186;6.926;2023-06-26T05:55:17;7.28;;;4.32;;
65238;SDS011;51827;51.186;6.926;2023-06-26T05:56:17;7.95;;;4.00;;
65238;SDS011;51827;51.186;6.926;2023-06-26T05:57:18;6.07;;;4.00;;
65238;SDS011;51827;51.186;6.926;2023-06-26T05:58:23;6.63;;;3.90;;
65238;SDS011;51827;51.186;6.926;2023-06-26T05:59:24;5.65;;;4.00;;
65238;SDS011;51827;51.186;6.926;2023-06-26T06:01:26;5.53;;;4.10;;
65238;SDS011;51827;51.186;6.926;2023-06-26T06:02:26;7.13;;;4.43;;
65238;SDS011;51827;51.186;6.926;2023-06-26T06:03:26;5.37;;;4.00;;
65238;SDS011;51827;51.186;6.926;2023-06-26T06:04:26;5.90;;;4.07;;
65238;SDS011;51827;51.186;6.926;2023-06-26T06:05:27;6.37;;;4.20;;
65238;SDS011;51827;51.186;6.926;2023-06-26T06:06:27;7.77;;;4.40;;
65238;SDS011;51827;51.186;6.926;2023-06-26T06:07:27;7.40;;;4.10;;
65238;SDS011;51827;51.186;6.926;2023-06-26T06:08:27;6.67;;;4.30;;
65238;SDS011;51827;51.186;6.926;2023-06-26T06:09:28;6.83;;;4.33;;
65238;SDS011;51827;51.186;6.926;2023-06-26T06:10:28;7.57;;;4.03;;
65238;SDS011;51827;51.186;6.926;2023-06-26T06:11:28;7.07;;;4.37;;
65238;SDS011;51827;51.186;6.926;2023-06-26T06:12:29;5.80;;;4.23;;
65238;SDS011;51827;51.186;6.926;2023-06-26T06:13:29;6.65;;;4.10;;